createdAt,value
2022-07-29T00:00:38.116Z,0.00
2022-07-29T00:01:38.134Z,0.00
2022-07-29T00:02:38.242Z,0.00
2022-07-29T00:03:38.109Z,0.00
2022-07-29T00:04:38.084Z,0.00
2022-07-29T00:05:38.722Z,0.00
2022-07-29T00:06:38.036Z,0.00
2022-07-29T00:07:38.030Z,0.00
2022-07-29T00:08:38.052Z,0.00
2022-07-29T00:09:44.876Z,0.00
2022-07-29T00:10:38.985Z,0.00
2022-07-29T00:11:38.654Z,0.00
2022-07-29T00:12:39.884Z,0.00
2022-07-29T00:13:37.953Z,0.00
2022-07-29T00:14:37.985Z,0.00
2022-07-29T00:15:38.632Z,0.00
2022-07-29T00:16:38.701Z,0.00
2022-07-29T00:17:37.898Z,0.00
2022-07-29T00:18:37.885Z,0.00
2022-07-29T00:19:37.878Z,0.00
2022-07-29T00:20:37.937Z,0.00
2022-07-29T00:21:38.556Z,0.00
2022-07-29T00:22:38.537Z,0.00
2022-07-29T00:23:38.518Z,0.00
2022-07-29T00:24:38.508Z,0.00
2022-07-29T00:25:37.819Z,0.00
2022-07-29T00:26:38.483Z,0.00
2022-07-29T00:27:38.489Z,0.00
2022-07-29T00:28:38.478Z,0.00
2022-07-29T00:29:38.466Z,0.00
2022-07-29T00:30:37.785Z,0.00
2022-07-29T00:31:38.462Z,0.00
2022-07-29T00:32:38.521Z,0.00
2022-07-29T00:33:38.431Z,0.00
2022-07-29T00:34:37.702Z,0.00
2022-07-29T00:35:38.397Z,0.00
2022-07-29T00:36:37.710Z,0.00
2022-07-29T00:37:37.712Z,0.00
2022-07-29T00:38:37.761Z,0.00
2022-07-29T00:39:38.357Z,0.00
2022-07-29T00:40:37.654Z,0.00
2022-07-29T00:41:38.627Z,0.00
2022-07-29T00:42:37.653Z,0.00
2022-07-29T00:43:38.314Z,0.00
2022-07-29T00:44:37.711Z,0.00
2022-07-29T00:45:38.286Z,0.00
2022-07-29T00:46:37.677Z,0.00
2022-07-29T00:47:40.018Z,0.00
2022-07-29T00:48:38.318Z,0.00
2022-07-29T00:49:37.562Z,0.00
2022-07-29T00:50:37.595Z,0.00
2022-07-29T00:51:38.224Z,0.00
2022-07-29T00:52:37.537Z,0.00
2022-07-29T00:53:38.204Z,0.00
2022-07-29T00:54:39.163Z,0.00
2022-07-29T00:55:38.526Z,0.00
2022-07-29T00:56:38.171Z,0.00
2022-07-29T00:57:37.509Z,0.00
2022-07-29T00:58:37.477Z,0.00
2022-07-29T00:59:37.476Z,0.00
2022-07-29T01:00:37.569Z,0.00
2022-07-29T01:01:37.539Z,0.00
2022-07-29T01:02:37.497Z,0.00
2022-07-29T01:03:38.098Z,0.00
2022-07-29T01:04:38.092Z,0.00
2022-07-29T01:05:50.342Z,0.00
2022-07-29T01:06:39.029Z,0.00
2022-07-29T01:07:38.074Z,0.00
2022-07-29T01:08:38.040Z,0.00
2022-07-29T01:09:46.113Z,0.00
2022-07-29T01:10:39.020Z,0.00
2022-07-29T01:11:38.002Z,0.00
2022-07-29T01:12:38.007Z,0.00
2022-07-29T01:13:39.235Z,0.00
2022-07-29T01:14:37.282Z,0.00
2022-07-29T01:15:37.972Z,0.00
2022-07-29T01:16:40.335Z,0.00
2022-07-29T01:17:37.960Z,0.00
2022-07-29T01:18:37.254Z,0.00
2022-07-29T01:19:37.923Z,0.00
2022-07-29T01:20:37.237Z,0.00
2022-07-29T01:21:37.373Z,0.00
2022-07-29T01:22:37.300Z,0.00
2022-07-29T01:23:37.203Z,0.00
2022-07-29T01:24:37.877Z,0.00
2022-07-29T01:25:37.857Z,0.00
2022-07-29T01:26:37.847Z,0.00
2022-07-29T01:27:37.854Z,0.00
2022-07-29T01:28:37.181Z,0.00
2022-07-29T01:29:40.556Z,0.00
2022-07-29T01:30:37.118Z,0.00
2022-07-29T01:31:40.292Z,0.00
2022-07-29T01:32:39.496Z,0.00
2022-07-29T01:33:37.087Z,0.00
2022-07-29T01:34:37.121Z,0.00
2022-07-29T01:35:37.091Z,0.00
2022-07-29T01:36:37.747Z,0.00
2022-07-29T01:37:37.059Z,0.00
2022-07-29T01:38:37.043Z,0.00
2022-07-29T01:39:37.046Z,0.00
2022-07-29T01:40:37.787Z,0.00
2022-07-29T01:41:37.713Z,0.00
2022-07-29T01:42:37.031Z,0.00
2022-07-29T01:43:36.977Z,0.00
2022-07-29T01:44:37.650Z,0.00
2022-07-29T01:45:37.003Z,0.00
2022-07-29T01:46:37.095Z,0.00
2022-07-29T01:47:37.181Z,0.00
2022-07-29T01:48:37.632Z,0.00
2022-07-29T01:49:37.594Z,0.00
2022-07-29T01:50:37.587Z,0.00
2022-07-29T01:51:37.572Z,0.00
2022-07-29T01:52:36.913Z,0.00
2022-07-29T01:53:38.248Z,0.00
2022-07-29T01:54:37.552Z,0.00
2022-07-29T01:55:36.842Z,0.00
2022-07-29T01:56:37.516Z,0.00
2022-07-29T01:57:38.773Z,0.00
2022-07-29T01:58:36.843Z,0.00
2022-07-29T01:59:37.752Z,0.00
2022-07-29T02:00:37.482Z,0.00
2022-07-29T02:01:36.848Z,0.00
2022-07-29T02:02:36.824Z,0.00
2022-07-29T02:03:37.444Z,0.00
2022-07-29T02:04:37.502Z,0.00
2022-07-29T02:05:37.425Z,0.00
2022-07-29T02:06:37.423Z,0.00
2022-07-29T02:07:37.407Z,0.00
2022-07-29T02:08:38.627Z,0.00
2022-07-29T02:09:37.376Z,0.00
2022-07-29T02:10:36.845Z,0.00
2022-07-29T02:11:37.361Z,0.00
2022-07-29T02:12:37.338Z,0.00
2022-07-29T02:13:36.662Z,0.00
2022-07-29T02:14:36.657Z,0.00
2022-07-29T02:15:36.662Z,0.00
2022-07-29T02:16:36.738Z,0.00
2022-07-29T02:17:40.845Z,0.00
2022-07-29T02:18:36.599Z,0.00
2022-07-29T02:19:36.630Z,0.00
2022-07-29T02:20:37.261Z,0.00
2022-07-29T02:21:36.579Z,0.00
2022-07-29T02:22:36.614Z,0.00
2022-07-29T02:23:50.032Z,0.00
2022-07-29T02:24:37.531Z,0.00
2022-07-29T02:25:38.387Z,0.00
2022-07-29T02:26:37.202Z,0.00
2022-07-29T02:27:37.197Z,0.00
2022-07-29T02:28:36.557Z,0.00
2022-07-29T02:29:36.547Z,0.00
2022-07-29T02:30:36.472Z,0.00
2022-07-29T02:31:36.543Z,0.00
2022-07-29T02:32:36.441Z,0.00
2022-07-29T02:33:36.473Z,0.00
2022-07-29T02:34:37.105Z,0.00
2022-07-29T02:35:36.454Z,0.00
2022-07-29T02:36:37.091Z,0.00
2022-07-29T02:37:38.346Z,0.00
2022-07-29T02:38:36.429Z,0.00
2022-07-29T02:39:36.559Z,0.00
2022-07-29T02:40:37.055Z,0.00
2022-07-29T02:41:37.028Z,0.00
2022-07-29T02:42:37.038Z,0.00
2022-07-29T02:43:36.365Z,0.00
2022-07-29T02:44:36.467Z,0.00
2022-07-29T02:45:41.580Z,0.00
2022-07-29T02:46:37.020Z,0.00
2022-07-29T02:47:41.358Z,0.00
2022-07-29T02:48:37.972Z,0.00
2022-07-29T02:49:36.641Z,0.00
2022-07-29T02:50:36.250Z,0.00
2022-07-29T02:51:43.449Z,0.00
2022-07-29T02:52:37.411Z,0.00
2022-07-29T02:53:37.018Z,0.00
2022-07-29T02:54:37.238Z,0.00
2022-07-29T02:55:36.898Z,0.00
2022-07-29T02:56:37.258Z,0.00
2022-07-29T02:57:36.179Z,0.00
2022-07-29T02:58:39.089Z,0.00
2022-07-29T02:59:39.604Z,0.00
2022-07-29T03:00:37.361Z,0.00
2022-07-29T03:01:37.225Z,0.00
2022-07-29T03:02:36.171Z,0.00
2022-07-29T03:03:36.131Z,0.00
2022-07-29T03:04:38.124Z,0.00
2022-07-29T03:05:36.780Z,0.00
2022-07-29T03:06:38.741Z,0.00
2022-07-29T03:07:36.757Z,0.00
2022-07-29T03:08:36.749Z,0.00
2022-07-29T03:09:36.735Z,0.00
2022-07-29T03:10:37.979Z,0.00
2022-07-29T03:11:40.062Z,0.00
2022-07-29T03:12:37.705Z,0.00
2022-07-29T03:13:36.691Z,0.00
2022-07-29T03:14:36.655Z,0.00
2022-07-29T03:15:36.031Z,0.00
2022-07-29T03:16:40.993Z,0.00
2022-07-29T03:17:35.987Z,0.00
2022-07-29T03:18:35.966Z,0.00
2022-07-29T03:19:36.007Z,0.00
2022-07-29T03:20:36.796Z,0.00
2022-07-29T03:21:36.595Z,0.00
2022-07-29T03:22:35.947Z,0.00
2022-07-29T03:23:36.867Z,0.00
2022-07-29T03:24:36.571Z,0.00
2022-07-29T03:25:36.538Z,0.00
2022-07-29T03:26:35.883Z,0.00
2022-07-29T03:27:36.972Z,0.00
2022-07-29T03:28:36.126Z,0.00
2022-07-29T03:29:37.458Z,0.00
2022-07-29T03:30:35.819Z,0.00
2022-07-29T03:31:36.608Z,0.00
2022-07-29T03:32:36.080Z,0.00
2022-07-29T03:33:37.970Z,0.00
2022-07-29T03:34:36.977Z,0.00
2022-07-29T03:35:36.442Z,0.00
2022-07-29T03:36:36.430Z,0.00
2022-07-29T03:37:37.095Z,0.00
2022-07-29T03:38:37.213Z,0.00
2022-07-29T03:39:36.391Z,0.00
2022-07-29T03:40:35.712Z,0.00
2022-07-29T03:41:36.378Z,0.00
2022-07-29T03:42:35.733Z,0.00
2022-07-29T03:43:36.373Z,0.00
2022-07-29T03:44:35.883Z,0.00
2022-07-29T03:45:36.346Z,0.00
2022-07-29T03:46:36.345Z,0.00
2022-07-29T03:47:50.069Z,0.00
2022-07-29T03:48:37.637Z,0.00
2022-07-29T03:49:35.616Z,5.62
2022-07-29T03:50:35.594Z,5.62
2022-07-29T03:51:36.265Z,5.62
2022-07-29T03:52:36.259Z,5.62
2022-07-29T03:53:35.565Z,5.62
2022-07-29T03:54:36.225Z,5.62
2022-07-29T03:55:36.226Z,5.62
2022-07-29T03:56:36.216Z,5.62
2022-07-29T03:57:36.196Z,5.62
2022-07-29T03:58:36.187Z,11.25
2022-07-29T03:59:35.537Z,11.25
2022-07-29T04:00:36.149Z,11.25
2022-07-29T04:01:36.252Z,11.25
2022-07-29T04:02:35.464Z,11.25
2022-07-29T04:03:35.498Z,11.25
2022-07-29T04:04:36.131Z,11.25
2022-07-29T04:05:35.488Z,11.25
2022-07-29T04:06:35.460Z,16.88
2022-07-29T04:07:35.446Z,16.88
2022-07-29T04:08:36.084Z,16.88
2022-07-29T04:09:35.382Z,16.88
2022-07-29T04:10:35.812Z,16.88
2022-07-29T04:12:01.491Z,16.88
2022-07-29T04:12:36.365Z,16.88
2022-07-29T04:13:36.018Z,22.50
2022-07-29T04:14:35.334Z,22.50
2022-07-29T04:15:35.402Z,22.50
2022-07-29T04:16:35.992Z,22.50
2022-07-29T04:17:35.983Z,28.12
2022-07-29T04:18:35.344Z,28.12
2022-07-29T04:19:35.291Z,28.12
2022-07-29T04:20:35.946Z,28.12
2022-07-29T04:21:35.264Z,33.75
2022-07-29T04:22:35.422Z,33.75
2022-07-29T04:23:35.274Z,33.75
2022-07-29T04:24:35.297Z,39.38
2022-07-29T04:25:35.884Z,39.38
2022-07-29T04:26:35.894Z,39.38
2022-07-29T04:27:35.238Z,39.38
2022-07-29T04:28:35.186Z,45.00
2022-07-29T04:29:35.365Z,45.00
2022-07-29T04:30:35.197Z,45.00
2022-07-29T04:31:37.162Z,50.62
2022-07-29T04:32:35.169Z,50.62
2022-07-29T04:33:35.817Z,50.62
2022-07-29T04:34:35.126Z,50.62
2022-07-29T04:35:38.105Z,50.62
2022-07-29T04:36:35.189Z,56.25
2022-07-29T04:37:35.765Z,56.25
2022-07-29T04:38:35.749Z,56.25
2022-07-29T04:39:35.738Z,56.25
2022-07-29T04:40:35.728Z,56.25
2022-07-29T04:41:35.727Z,61.88
2022-07-29T04:42:35.699Z,61.88
2022-07-29T04:43:36.678Z,61.88
2022-07-29T04:44:37.225Z,61.88
2022-07-29T04:45:34.988Z,67.50
2022-07-29T04:46:35.736Z,67.50
2022-07-29T04:47:35.603Z,73.12
2022-07-29T04:48:35.640Z,73.12
2022-07-29T04:49:35.641Z,78.75
2022-07-29T04:50:34.952Z,78.75
2022-07-29T04:51:34.944Z,84.38
2022-07-29T04:52:34.934Z,84.38
2022-07-29T04:53:34.927Z,84.38
2022-07-29T04:54:34.913Z,84.38
2022-07-29T04:55:34.901Z,90.00
2022-07-29T04:56:34.868Z,95.62
2022-07-29T04:57:34.863Z,95.62
2022-07-29T04:58:34.849Z,95.62
2022-07-29T04:59:34.906Z,101.25
2022-07-29T05:00:34.824Z,101.25
2022-07-29T05:01:35.542Z,101.25
2022-07-29T05:02:34.905Z,106.88
2022-07-29T05:03:34.793Z,106.88
2022-07-29T05:04:35.475Z,112.50
2022-07-29T05:05:34.824Z,112.50
2022-07-29T05:06:34.966Z,118.12
2022-07-29T05:07:35.425Z,118.12
2022-07-29T05:08:34.759Z,123.75
2022-07-29T05:09:34.729Z,123.75
2022-07-29T05:10:35.396Z,123.75
2022-07-29T05:11:34.787Z,123.75
2022-07-29T05:12:34.698Z,123.75
2022-07-29T05:13:45.907Z,123.75
2022-07-29T05:14:37.578Z,123.75
2022-07-29T05:15:34.737Z,123.75
2022-07-29T05:16:34.701Z,123.75
2022-07-29T05:17:34.704Z,123.75
2022-07-29T05:18:34.712Z,123.75
2022-07-29T05:19:34.618Z,123.75
2022-07-29T05:20:35.614Z,123.75
2022-07-29T05:21:34.590Z,123.75
2022-07-29T05:22:35.265Z,123.75
2022-07-29T05:23:36.573Z,123.75
2022-07-29T05:24:35.254Z,123.75
2022-07-29T05:25:43.179Z,118.12
2022-07-29T05:26:35.552Z,118.12
2022-07-29T05:27:34.556Z,118.12
2022-07-29T05:28:34.510Z,112.50
2022-07-29T05:29:44.917Z,112.50
2022-07-29T05:30:35.522Z,112.50
2022-07-29T05:31:34.504Z,112.50
2022-07-29T05:32:34.562Z,112.50
2022-07-29T05:33:37.040Z,112.50
2022-07-29T05:34:34.485Z,112.50
2022-07-29T05:35:34.464Z,112.50
2022-07-29T05:36:34.463Z,112.50
2022-07-29T05:37:35.111Z,112.50
2022-07-29T05:38:34.447Z,112.50
2022-07-29T05:39:47.603Z,112.50
2022-07-29T05:40:35.485Z,112.50
2022-07-29T05:41:34.376Z,112.50
2022-07-29T05:42:35.071Z,106.88
2022-07-29T05:43:34.416Z,106.88
2022-07-29T05:44:35.026Z,106.88
2022-07-29T05:45:35.056Z,106.88
2022-07-29T05:46:36.054Z,106.88
2022-07-29T05:47:34.997Z,112.50
2022-07-29T05:48:34.307Z,112.50
2022-07-29T05:49:34.388Z,118.12
2022-07-29T05:50:34.963Z,118.12
2022-07-29T05:51:34.947Z,118.12
2022-07-29T05:52:35.021Z,123.75
2022-07-29T05:53:34.269Z,129.38
2022-07-29T05:54:34.242Z,135.00
2022-07-29T05:55:34.247Z,140.62
2022-07-29T05:56:34.900Z,146.25
2022-07-29T05:57:34.893Z,146.25
2022-07-29T05:58:34.876Z,151.88
2022-07-29T05:59:34.171Z,151.88
2022-07-29T06:00:34.191Z,151.88
2022-07-29T06:01:34.858Z,151.88
2022-07-29T06:02:34.151Z,151.88
2022-07-29T06:03:34.159Z,151.88
2022-07-29T06:04:34.178Z,151.88
2022-07-29T06:05:34.150Z,151.88
2022-07-29T06:06:34.828Z,151.88
2022-07-29T06:07:34.781Z,157.50
2022-07-29T06:08:34.079Z,157.50
2022-07-29T06:09:36.189Z,151.88
2022-07-29T06:10:34.747Z,151.88
2022-07-29T06:11:34.744Z,151.88
2022-07-29T06:12:34.077Z,157.50
2022-07-29T06:13:34.714Z,163.12
2022-07-29T06:14:34.711Z,174.38
2022-07-29T06:15:34.735Z,191.25
2022-07-29T06:16:34.037Z,185.62
2022-07-29T06:17:33.997Z,163.12
2022-07-29T06:18:34.001Z,157.50
2022-07-29T06:19:34.636Z,157.50
2022-07-29T06:20:33.985Z,163.12
2022-07-29T06:21:34.720Z,163.12
2022-07-29T06:22:34.624Z,163.12
2022-07-29T06:23:34.608Z,163.12
2022-07-29T06:24:34.598Z,157.50
2022-07-29T06:25:33.930Z,151.88
2022-07-29T06:26:39.225Z,146.25
2022-07-29T06:27:36.858Z,146.25
2022-07-29T06:28:34.562Z,140.62
2022-07-29T06:29:34.541Z,140.62
2022-07-29T06:30:34.577Z,140.62
2022-07-29T06:31:34.528Z,146.25
2022-07-29T06:32:33.874Z,146.25
2022-07-29T06:33:33.867Z,151.88
2022-07-29T06:34:35.273Z,157.50
2022-07-29T06:35:38.920Z,163.12
2022-07-29T06:36:34.782Z,168.75
2022-07-29T06:37:35.734Z,180.00
2022-07-29T06:38:34.251Z,185.62
2022-07-29T06:39:36.734Z,191.25
2022-07-29T06:40:33.752Z,191.25
2022-07-29T06:41:33.721Z,196.88
2022-07-29T06:42:34.393Z,196.88
2022-07-29T06:43:34.384Z,196.88
2022-07-29T06:44:33.694Z,196.88
2022-07-29T06:45:33.712Z,202.50
2022-07-29T06:46:34.403Z,202.50
2022-07-29T06:47:33.683Z,202.50
2022-07-29T06:48:33.666Z,202.50
2022-07-29T06:49:33.683Z,202.50
2022-07-29T06:50:34.318Z,202.50
2022-07-29T06:51:33.657Z,202.50
2022-07-29T06:52:34.296Z,202.50
2022-07-29T06:53:33.680Z,202.50
2022-07-29T06:54:34.288Z,202.50
2022-07-29T06:55:34.257Z,202.50
2022-07-29T06:56:39.177Z,196.88
2022-07-29T06:57:34.589Z,196.88
2022-07-29T06:58:33.528Z,191.25
2022-07-29T06:59:35.989Z,185.62
2022-07-29T07:00:33.526Z,180.00
2022-07-29T07:01:33.561Z,174.38
2022-07-29T07:02:33.539Z,174.38
2022-07-29T07:03:33.510Z,168.75
2022-07-29T07:04:33.482Z,163.12
2022-07-29T07:05:33.479Z,157.50
2022-07-29T07:06:34.370Z,157.50
2022-07-29T07:07:34.133Z,151.88
2022-07-29T07:08:33.430Z,146.25
2022-07-29T07:09:39.913Z,146.25
2022-07-29T07:10:35.089Z,146.25
2022-07-29T07:11:34.081Z,146.25
2022-07-29T07:12:34.072Z,151.88
2022-07-29T07:13:34.067Z,151.88
2022-07-29T07:14:33.381Z,157.50
2022-07-29T07:15:39.327Z,163.12
2022-07-29T07:16:36.323Z,163.12
2022-07-29T07:17:34.014Z,168.75
2022-07-29T07:18:34.024Z,168.75
2022-07-29T07:19:33.581Z,168.75
2022-07-29T07:20:33.324Z,174.38
2022-07-29T07:21:33.324Z,174.38
2022-07-29T07:22:38.485Z,174.38
2022-07-29T07:23:34.255Z,174.38
2022-07-29T07:24:33.300Z,174.38
2022-07-29T07:25:33.933Z,174.38
2022-07-29T07:26:33.306Z,174.38
2022-07-29T07:27:33.235Z,168.75
2022-07-29T07:28:33.229Z,168.75
2022-07-29T07:29:33.883Z,174.38
2022-07-29T07:30:34.120Z,180.00
2022-07-29T07:31:33.930Z,180.00
2022-07-29T07:32:33.861Z,180.00
2022-07-29T07:33:33.159Z,180.00
2022-07-29T07:34:33.843Z,185.62
2022-07-29T07:35:33.845Z,191.25
2022-07-29T07:36:33.819Z,196.88
2022-07-29T07:37:33.123Z,202.50
2022-07-29T07:38:33.222Z,208.12
2022-07-29T07:39:33.122Z,208.12
2022-07-29T07:40:33.792Z,202.50
2022-07-29T07:41:33.774Z,202.50
2022-07-29T07:42:33.061Z,196.88
2022-07-29T07:43:33.751Z,202.50
2022-07-29T07:44:36.471Z,202.50
2022-07-29T07:45:34.850Z,202.50
2022-07-29T07:46:33.022Z,208.12
2022-07-29T07:47:34.243Z,213.75
2022-07-29T07:48:32.995Z,219.38
2022-07-29T07:49:32.994Z,230.62
2022-07-29T07:50:33.015Z,241.88
2022-07-29T07:51:33.002Z,253.12
2022-07-29T07:52:33.647Z,270.00
2022-07-29T07:53:33.633Z,281.25
2022-07-29T07:54:33.875Z,286.88
2022-07-29T07:55:53.407Z,281.25
2022-07-29T07:56:35.431Z,281.25
2022-07-29T07:57:32.929Z,286.88
2022-07-29T07:58:32.917Z,286.88
2022-07-29T07:59:32.884Z,292.50
2022-07-29T08:00:33.570Z,298.12
2022-07-29T08:01:48.422Z,309.38
2022-07-29T08:02:33.923Z,315.00
2022-07-29T08:03:32.838Z,315.00
2022-07-29T08:04:32.882Z,315.00
2022-07-29T08:05:33.522Z,309.38
2022-07-29T08:06:32.820Z,303.75
2022-07-29T08:07:32.811Z,298.12
2022-07-29T08:08:32.853Z,286.88
2022-07-29T08:09:33.461Z,281.25
2022-07-29T08:10:32.780Z,281.25
2022-07-29T08:11:34.103Z,281.25
2022-07-29T08:12:33.455Z,286.88
2022-07-29T08:13:33.413Z,286.88
2022-07-29T08:14:32.771Z,281.25
2022-07-29T08:15:33.393Z,281.25
2022-07-29T08:16:32.735Z,275.62
2022-07-29T08:17:35.500Z,275.62
2022-07-29T08:18:33.393Z,270.00
2022-07-29T08:19:34.625Z,258.75
2022-07-29T08:20:32.703Z,253.12
2022-07-29T08:21:33.323Z,253.12
2022-07-29T08:22:33.315Z,253.12
2022-07-29T08:23:46.171Z,247.50
2022-07-29T08:24:35.525Z,247.50
2022-07-29T08:25:32.619Z,253.12
2022-07-29T08:26:34.604Z,253.12
2022-07-29T08:27:47.802Z,258.75
2022-07-29T08:28:34.407Z,253.12
2022-07-29T08:29:32.576Z,253.12
2022-07-29T08:30:33.235Z,253.12
2022-07-29T08:31:32.602Z,253.12
2022-07-29T08:32:52.626Z,258.75
2022-07-29T08:33:34.461Z,264.38
2022-07-29T08:34:32.500Z,270.00
2022-07-29T08:35:36.366Z,270.00
2022-07-29T08:36:33.169Z,270.00
2022-07-29T08:37:33.148Z,264.38
2022-07-29T08:38:33.150Z,258.75
2022-07-29T08:39:32.473Z,253.12
2022-07-29T08:40:33.120Z,247.50
2022-07-29T08:41:32.475Z,241.88
2022-07-29T08:42:32.431Z,236.25
2022-07-29T08:43:32.450Z,230.62
2022-07-29T08:44:33.060Z,230.62
2022-07-29T08:45:32.460Z,230.62
2022-07-29T08:46:33.074Z,230.62
2022-07-29T08:47:33.060Z,236.25
2022-07-29T08:48:32.355Z,236.25
2022-07-29T08:49:32.382Z,241.88
2022-07-29T08:50:33.004Z,247.50
2022-07-29T08:51:33.003Z,247.50
2022-07-29T08:52:32.322Z,247.50
2022-07-29T08:53:32.332Z,247.50
2022-07-29T08:54:32.308Z,241.88
2022-07-29T08:55:32.955Z,241.88
2022-07-29T08:56:32.378Z,236.25
2022-07-29T08:57:32.954Z,236.25
2022-07-29T08:58:32.258Z,241.88
2022-07-29T08:59:32.917Z,241.88
2022-07-29T09:00:32.244Z,241.88
2022-07-29T09:01:35.278Z,241.88
2022-07-29T09:02:32.892Z,241.88
2022-07-29T09:03:32.314Z,236.25
2022-07-29T09:04:32.178Z,236.25
2022-07-29T09:05:35.805Z,236.25
2022-07-29T09:06:33.146Z,236.25
2022-07-29T09:07:34.594Z,236.25
2022-07-29T09:08:32.799Z,236.25
2022-07-29T09:09:32.808Z,236.25
2022-07-29T09:10:32.149Z,230.62
2022-07-29T09:11:32.793Z,225.00
2022-07-29T09:12:36.188Z,219.38
2022-07-29T09:13:33.783Z,208.12
2022-07-29T09:14:32.099Z,202.50
2022-07-29T09:15:32.049Z,196.88
2022-07-29T09:16:52.274Z,185.62
2022-07-29T09:17:33.050Z,174.38
2022-07-29T09:18:32.021Z,168.75
2022-07-29T09:19:32.787Z,163.12
2022-07-29T09:20:32.003Z,157.50
2022-07-29T09:21:32.015Z,157.50
2022-07-29T09:22:32.653Z,151.88
2022-07-29T09:23:31.983Z,151.88
2022-07-29T09:24:32.652Z,151.88
2022-07-29T09:25:31.974Z,151.88
2022-07-29T09:26:31.934Z,157.50
2022-07-29T09:27:32.657Z,157.50
2022-07-29T09:28:31.957Z,157.50
2022-07-29T09:29:36.088Z,151.88
2022-07-29T09:30:33.895Z,151.88
2022-07-29T09:31:32.643Z,146.25
2022-07-29T09:32:32.568Z,146.25
2022-07-29T09:33:32.538Z,140.62
2022-07-29T09:34:31.887Z,140.62
2022-07-29T09:35:32.517Z,140.62
2022-07-29T09:36:31.846Z,135.00
2022-07-29T09:37:32.488Z,129.38
2022-07-29T09:38:31.808Z,123.75
2022-07-29T09:39:32.470Z,123.75
2022-07-29T09:40:31.835Z,123.75
2022-07-29T09:41:31.778Z,118.12
2022-07-29T09:42:31.790Z,118.12
2022-07-29T09:43:32.695Z,118.12
2022-07-29T09:44:31.741Z,118.12
2022-07-29T09:45:31.756Z,118.12
2022-07-29T09:46:32.426Z,123.75
2022-07-29T09:47:31.766Z,123.75
2022-07-29T09:48:32.381Z,123.75
2022-07-29T09:49:32.363Z,129.38
2022-07-29T09:50:32.387Z,129.38
2022-07-29T09:51:38.043Z,129.38
2022-07-29T09:52:32.654Z,135.00
2022-07-29T09:53:32.313Z,135.00
2022-07-29T09:54:31.635Z,135.00
2022-07-29T09:55:32.312Z,135.00
2022-07-29T09:56:32.295Z,135.00
2022-07-29T09:57:32.284Z,135.00
2022-07-29T09:58:32.262Z,135.00
2022-07-29T09:59:31.597Z,135.00
2022-07-29T10:00:32.280Z,135.00
2022-07-29T10:01:32.228Z,129.38
2022-07-29T10:02:31.596Z,129.38
2022-07-29T10:03:32.265Z,123.75
2022-07-29T10:04:31.539Z,123.75
2022-07-29T10:05:36.027Z,123.75
2022-07-29T10:06:31.540Z,118.12
2022-07-29T10:07:32.169Z,118.12
2022-07-29T10:08:31.511Z,118.12
2022-07-29T10:09:31.470Z,112.50
2022-07-29T10:10:31.519Z,106.88
2022-07-29T10:11:48.093Z,101.25
2022-07-29T10:12:33.989Z,101.25
2022-07-29T10:13:32.101Z,95.62
2022-07-29T10:14:32.095Z,95.62
2022-07-29T10:15:31.463Z,90.00
2022-07-29T10:16:31.463Z,90.00
2022-07-29T10:17:31.433Z,90.00
2022-07-29T10:18:33.466Z,90.00
2022-07-29T10:19:31.382Z,90.00
2022-07-29T10:20:31.344Z,95.62
2022-07-29T10:21:36.154Z,95.62
2022-07-29T10:22:51.997Z,95.62
2022-07-29T10:23:46.714Z,101.25
2022-07-29T10:24:32.356Z,106.88
2022-07-29T10:25:33.293Z,112.50
2022-07-29T10:26:31.289Z,118.12
2022-07-29T10:27:32.870Z,129.38
2022-07-29T10:28:31.253Z,135.00
2022-07-29T10:29:31.944Z,146.25
2022-07-29T10:30:31.915Z,157.50
2022-07-29T10:31:31.952Z,163.12
2022-07-29T10:32:31.887Z,168.75
2022-07-29T10:33:31.886Z,174.38
2022-07-29T10:34:31.876Z,185.62
2022-07-29T10:35:31.223Z,191.25
2022-07-29T10:36:31.837Z,196.88
2022-07-29T10:37:35.960Z,202.50
2022-07-29T10:38:31.158Z,202.50
2022-07-29T10:39:41.841Z,208.12
2022-07-29T10:40:32.789Z,213.75
2022-07-29T10:41:32.254Z,219.38
2022-07-29T10:42:34.603Z,219.38
2022-07-29T10:43:31.925Z,213.75
2022-07-29T10:44:31.769Z,213.75
2022-07-29T10:45:31.759Z,213.75
2022-07-29T10:46:31.843Z,219.38
2022-07-29T10:47:31.737Z,225.00
2022-07-29T10:48:31.710Z,225.00
2022-07-29T10:49:31.392Z,225.00
2022-07-29T10:50:31.042Z,219.38
2022-07-29T10:51:31.038Z,208.12
2022-07-29T10:52:31.021Z,202.50
2022-07-29T10:53:33.986Z,191.25
2022-07-29T10:54:31.644Z,185.62
2022-07-29T10:55:31.033Z,174.38
2022-07-29T10:56:31.631Z,163.12
2022-07-29T10:57:53.653Z,157.50
2022-07-29T10:58:32.604Z,151.88
2022-07-29T10:59:36.078Z,146.25
2022-07-29T11:00:32.406Z,140.62
2022-07-29T11:01:37.679Z,135.00
2022-07-29T11:02:42.117Z,129.38
2022-07-29T11:03:33.825Z,129.38
2022-07-29T11:04:31.560Z,123.75
2022-07-29T11:06:34.524Z,118.12
2022-07-29T11:07:46.101Z,118.12
2022-07-29T11:08:33.761Z,118.12
2022-07-29T11:09:35.004Z,118.12
2022-07-29T11:10:32.013Z,129.38
2022-07-29T11:11:30.790Z,123.75
2022-07-29T11:12:30.769Z,129.38
2022-07-29T11:13:31.509Z,129.38
2022-07-29T11:14:32.259Z,135.00
2022-07-29T11:15:32.225Z,146.25
2022-07-29T11:16:30.789Z,151.88
2022-07-29T11:17:37.433Z,157.50
2022-07-29T11:18:31.733Z,163.12
2022-07-29T11:19:31.379Z,168.75
2022-07-29T11:20:30.712Z,174.38
2022-07-29T11:21:35.976Z,180.00
2022-07-29T11:22:32.621Z,191.25
2022-07-29T11:23:34.005Z,196.88
2022-07-29T11:24:30.632Z,202.50
2022-07-29T11:25:50.320Z,213.75
2022-07-29T11:26:31.626Z,213.75
2022-07-29T11:27:32.578Z,208.12
2022-07-29T11:28:32.063Z,202.50
2022-07-29T11:29:31.284Z,196.88
2022-07-29T11:30:31.265Z,185.62
2022-07-29T11:31:31.266Z,174.38
2022-07-29T11:32:30.585Z,168.75
2022-07-29T11:33:54.535Z,163.12
2022-07-29T11:34:34.747Z,163.12
2022-07-29T11:35:38.356Z,163.12
2022-07-29T11:36:32.212Z,163.12
2022-07-29T11:37:30.506Z,157.50
2022-07-29T11:38:31.741Z,157.50
2022-07-29T11:39:36.238Z,151.88
2022-07-29T11:40:32.147Z,151.88
2022-07-29T11:41:31.802Z,151.88
2022-07-29T11:43:33.402Z,157.50
2022-07-29T11:44:32.449Z,151.88
2022-07-29T11:45:44.692Z,146.25
2022-07-29T11:46:32.872Z,146.25
2022-07-29T11:47:30.425Z,135.00
2022-07-29T11:48:33.369Z,135.00
2022-07-29T11:49:32.024Z,135.00
2022-07-29T11:50:30.403Z,135.00
2022-07-29T11:51:32.799Z,140.62
2022-07-29T11:52:31.026Z,140.62
2022-07-29T11:54:32.787Z,146.25
2022-07-29T11:55:32.619Z,151.88
2022-07-29T11:56:31.749Z,151.88
2022-07-29T11:57:36.478Z,157.50
2022-07-29T11:58:32.254Z,151.88
2022-07-29T11:59:33.490Z,151.88
2022-07-29T12:00:31.190Z,151.88
2022-07-29T12:01:32.245Z,151.88
2022-07-29T12:02:38.287Z,157.50
2022-07-29T12:03:35.119Z,168.75
2022-07-29T12:04:32.170Z,174.38
2022-07-29T12:05:36.292Z,185.62
2022-07-29T12:06:33.205Z,191.25
2022-07-29T12:07:34.707Z,196.88
2022-07-29T12:08:30.869Z,202.50
2022-07-29T12:09:30.258Z,208.12
2022-07-29T12:10:33.111Z,208.12
2022-07-29T12:11:30.809Z,213.75
2022-07-29T12:12:30.877Z,213.75
2022-07-29T12:13:37.450Z,208.12
2022-07-29T12:14:31.099Z,202.50
2022-07-29T12:15:45.608Z,202.50
2022-07-29T12:16:33.566Z,196.88
2022-07-29T12:17:30.478Z,185.62
2022-07-29T12:18:30.079Z,180.00
2022-07-29T12:19:30.732Z,174.38
2022-07-29T12:20:30.040Z,168.75
2022-07-29T12:21:30.966Z,174.38
2022-07-29T12:22:30.021Z,168.75
2022-07-29T12:23:33.552Z,163.12
2022-07-29T12:24:31.661Z,163.12
2022-07-29T12:25:32.844Z,163.12
2022-07-29T12:26:30.653Z,163.12
2022-07-29T12:27:31.409Z,168.75
2022-07-29T12:28:29.947Z,180.00
2022-07-29T12:29:34.516Z,185.62
2022-07-29T12:30:30.603Z,191.25
2022-07-29T12:31:43.961Z,191.25
2022-07-29T12:32:31.612Z,191.25
2022-07-29T12:33:30.576Z,191.25
2022-07-29T12:34:30.609Z,185.62
2022-07-29T12:35:30.006Z,185.62
2022-07-29T12:36:29.865Z,191.25
2022-07-29T12:37:30.946Z,196.88
2022-07-29T12:38:30.855Z,202.50
2022-07-29T12:39:29.818Z,202.50
2022-07-29T12:40:30.594Z,202.50
2022-07-29T12:41:30.506Z,202.50
2022-07-29T12:42:29.798Z,213.75
2022-07-29T12:43:30.526Z,230.62
2022-07-29T12:44:29.787Z,241.88
2022-07-29T12:45:30.444Z,253.12
2022-07-29T12:46:29.879Z,264.38
2022-07-29T12:47:30.402Z,281.25
2022-07-29T12:48:30.409Z,303.75